Terminal Aerodrome Forecast
Issued by NWS

Home | Current Version | Previous Version | Text Only | Print | Product List | Glossary On
Versions: 1 2 3 4 5 6 7 8 9 10 11 12 13 14 15 16 17 18 19 20 21 22
000
FTUS41 KOKX 040830 AAA
TAFSWF
TAF AMD
KSWF 040830Z 0409/0512 VRB03KT 3SM BR OVC004
      TEMPO 0409/0412 1SM BR
     FM041200 10006KT 3SM BR SCT005 OVC008
     FM041500 09008KT 4SM -SHRA BR FEW005 OVC010
     FM050000 08010KT 3SM BR OVC006
      AMD NOT SKED=

USA.gov is the U.S. government's official web portal to all federal, state and local government web resources and services.